Time,TemperatureF,DewpointF,PressureIn,WindDirection,WindDirectionDegrees,WindSpeedMPH,WindSpeedGustMPH,Humidity,HourlyPrecipIn,Conditions,Clouds,dailyrainin,SoftwareType,DateUTC
2013-09-03 00:01:00,65.4,64.5,29.68,NE,51,0.0,0.0,97,0.01, +RA,,0.00,WeatherDisplay:10.37,2013-09-03 04:01:00,
2013-09-03 00:02:00,65.3,64.4,29.67,NE,51,0.0,0.0,97,0.01, +RA,,0.00,WeatherDisplay:10.37,2013-09-03 04:02:00,
2013-09-03 00:07:00,65.2,64.3,29.67,NE,51,0.0,0.0,97,0.01, +RA,,0.00,WeatherDisplay:10.37,2013-09-03 04:07:00,
2013-09-03 00:12:00,64.9,64.3,29.67,NE,51,0.0,0.0,98,0.01,BKN,,0.00,WeatherDisplay:10.37,2013-09-03 04:12:00,
2013-09-03 00:17:00,64.7,64.1,29.67,NE,51,1.2,1.2,98,0.01,BKN,,0.00,WeatherDisplay:10.37,2013-09-03 04:17:00,
2013-09-03 00:22:00,64.5,63.9,29.67,NE,51,0.0,0.0,98,0.01,BKN,,0.00,WeatherDisplay:10.37,2013-09-03 04:22:00,
2013-09-03 00:27:00,64.4,63.8,29.67,NE,51,0.0,0.0,98,0.01,BKN,,0.00,WeatherDisplay:10.37,2013-09-03 04:27:00,
2013-09-03 00:32:00,64.3,63.7,29.66,NE,51,0.0,0.0,98,0.01,BKN,,0.00,WeatherDisplay:10.37,2013-09-03 04:32:00,
2013-09-03 00:37:00,64.3,63.7,29.66,NE,51,0.0,0.0,98,0.01,BKN,,0.00,WeatherDisplay:10.37,2013-09-03 04:37:00,
2013-09-03 00:42:00,64.2,63.6,29.66,NE,51,0.0,0.0,98,0.01,BKN,,0.00,WeatherDisplay:10.37,2013-09-03 04:42:00,
2013-09-03 00:47:00,64.2,63.9,29.68,NE,51,1.2,1.2,99,0.01,BKN,,0.00,WeatherDisplay:10.37,2013-09-03 04:47:00,
2013-09-03 00:52:00,64.1,63.8,29.68,NE,51,0.0,0.0,99,0.01,BKN,,0.00,WeatherDisplay:10.37,2013-09-03 04:52:00,
2013-09-03 00:57:00,64.0,63.4,29.69,NE,51,0.0,0.0,98,0.01,BKN,,0.00,WeatherDisplay:10.37,2013-09-03 04:57:00,
2013-09-03 01:02:00,64.0,63.4,29.69,NE,51,0.0,0.0,98,0.01,BKN,,0.00,WeatherDisplay:10.37,2013-09-03 05:02:00,
2013-09-03 01:07:00,63.8,63.2,29.69,NE,51,0.0,0.0,98,0.00,BKN,,0.00,WeatherDisplay:10.37,2013-09-03 05:07:00,
2013-09-03 01:12:00,63.8,63.5,29.70,NE,51,0.0,0.0,99,0.00,BKN,,0.00,WeatherDisplay:10.37,2013-09-03 05:12:00,
2013-09-03 01:17:00,63.7,63.4,29.70,East,92,0.0,0.0,99,0.00,CLR,,0.00,WeatherDisplay:10.37,2013-09-03 05:17:00,
2013-09-03 01:22:00,63.7,63.4,29.70,East,92,0.0,0.1,99,0.00,CLR,,0.00,WeatherDisplay:10.37,2013-09-03 05:22:00,
2013-09-03 01:27:00,63.8,63.5,29.70,East,92,1.2,0.0,99,0.00,CLR,,0.00,WeatherDisplay:10.37,2013-09-03 05:27:00,
2013-09-03 01:32:00,63.8,63.5,29.70,East,92,1.0,0.0,99,0.00,CLR,,0.00,WeatherDisplay:10.37,2013-09-03 05:32:00,
2013-09-03 01:37:00,63.8,63.5,29.70,East,92,0.0,0.0,99,0.00,CLR,,0.00,WeatherDisplay:10.37,2013-09-03 05:37:00,
2013-09-03 01:42:00,64.0,63.7,29.69,East,92,0.0,0.0,99,0.00,CLR,,0.00,WeatherDisplay:10.37,2013-09-03 05:42:00,
2013-09-03 01:47:00,64.1,63.8,29.68,East,92,0.0,0.0,99,0.00,CLR,,0.00,WeatherDisplay:10.37,2013-09-03 05:47:00,
2013-09-03 01:52:00,64.0,63.7,29.69,East,92,0.0,0.0,99,0.00,CLR,,0.00,WeatherDisplay:10.37,2013-09-03 05:52:00,
2013-09-03 01:57:00,63.9,63.6,29.68,East,92,0.0,0.0,99,0.00,BKN,,0.00,WeatherDisplay:10.37,2013-09-03 05:57:00,
2013-09-03 02:02:00,63.8,63.5,29.68,East,92,0.0,0.0,99,0.00,BKN,,0.00,WeatherDisplay:10.37,2013-09-03 06:02:00,
2013-09-03 02:07:00,63.7,63.4,29.68,East,92,0.0,0.0,99,0.00,BKN,,0.00,WeatherDisplay:10.37,2013-09-03 06:07:00,
2013-09-03 02:12:00,63.6,63.3,29.69,East,92,0.0,0.0,99,0.00,BKN,,0.00,WeatherDisplay:10.37,2013-09-03 06:12:00,
2013-09-03 02:17:00,63.6,63.3,29.69,East,92,0.0,0.0,99,0.00,SCT,,0.00,WeatherDisplay:10.37,2013-09-03 06:17:00,
2013-09-03 02:22:00,63.7,63.4,29.68,East,92,0.0,0.0,99,0.00,SCT,,0.00,WeatherDisplay:10.37,2013-09-03 06:22:00,
2013-09-03 02:27:00,63.8,63.5,29.67,East,92,0.0,0.0,99,0.00,SCT,,0.00,WeatherDisplay:10.37,2013-09-03 06:27:00,
2013-09-03 02:33:00,63.8,63.5,29.68,East,92,0.0,0.0,99,0.00,SCT,,0.00,WeatherDisplay:10.37,2013-09-03 06:33:00,
2013-09-03 02:38:00,63.8,63.5,29.68,East,92,0.0,0.0,99,0.00,SCT,,0.00,WeatherDisplay:10.37,2013-09-03 06:38:00,
2013-09-03 02:43:00,63.8,63.5,29.68,East,92,0.0,0.0,99,0.00,SCT,,0.00,WeatherDisplay:10.37,2013-09-03 06:43:00,
2013-09-03 02:48:00,63.8,63.5,29.68,East,92,0.0,0.0,99,0.00,SCT,,0.00,WeatherDisplay:10.37,2013-09-03 06:48:00,
2013-09-03 02:53:00,63.8,63.5,29.68,East,92,0.0,0.0,99,0.00,SCT,,0.00,WeatherDisplay:10.37,2013-09-03 06:53:00,
2013-09-03 02:58:00,63.8,63.5,29.67,East,92,0.0,0.0,99,0.00,BKN,,0.00,WeatherDisplay:10.37,2013-09-03 06:58:00,
2013-09-03 03:03:00,63.8,63.5,29.67,East,92,0.0,0.0,99,0.00,BKN,,0.00,WeatherDisplay:10.37,2013-09-03 07:03:00,
2013-09-03 03:08:00,63.8,63.5,29.67,East,92,0.0,0.0,99,0.00,BKN,,0.00,WeatherDisplay:10.37,2013-09-03 07:08:00,
2013-09-03 03:13:00,63.7,63.4,29.67,East,92,0.0,0.0,99,0.00,OVC,,0.00,WeatherDisplay:10.37,2013-09-03 07:13:00,
2013-09-03 03:18:00,63.6,63.3,29.67,East,92,0.0,0.0,99,0.00,OVC,,0.00,WeatherDisplay:10.37,2013-09-03 07:18:00,
2013-09-03 03:23:00,63.6,63.3,29.67,East,92,0.0,0.0,99,0.00,OVC,,0.00,WeatherDisplay:10.37,2013-09-03 07:23:00,
2013-09-03 03:28:00,63.5,63.2,29.68,East,92,0.0,0.0,99,0.00,OVC,,0.00,WeatherDisplay:10.37,2013-09-03 07:28:00,
2013-09-03 03:33:00,63.5,63.2,29.68,East,92,0.0,0.0,99,0.00,OVC,,0.00,WeatherDisplay:10.37,2013-09-03 07:33:00,
2013-09-03 03:38:00,63.5,63.2,29.67,East,92,0.0,0.0,99,0.00,OVC,,0.00,WeatherDisplay:10.37,2013-09-03 07:38:00,
2013-09-03 03:43:00,63.5,63.2,29.67,East,92,0.0,0.0,99,0.00,OVC,,0.00,WeatherDisplay:10.37,2013-09-03 07:43:00,
2013-09-03 03:48:00,63.4,63.1,29.67,East,92,0.0,0.0,99,0.00,OVC,,0.00,WeatherDisplay:10.37,2013-09-03 07:48:00,
2013-09-03 03:53:00,63.4,63.1,29.67,East,92,0.0,0.0,99,0.00,OVC,,0.00,WeatherDisplay:10.37,2013-09-03 07:53:00,
2013-09-03 03:58:00,63.4,63.1,29.67,East,92,0.0,0.0,99,0.00,OVC,,0.00,WeatherDisplay:10.37,2013-09-03 07:58:00,
2013-09-03 04:03:00,63.4,63.1,29.66,East,92,0.0,0.0,99,0.00,OVC,,0.00,WeatherDisplay:10.37,2013-09-03 08:03:00,
2013-09-03 04:08:00,63.3,63.0,29.66,East,92,0.0,0.0,99,0.00,OVC,,0.00,WeatherDisplay:10.37,2013-09-03 08:08:00,
2013-09-03 04:13:00,63.2,62.9,29.66,East,92,0.0,0.0,99,0.00,OVC,,0.00,WeatherDisplay:10.37,2013-09-03 08:13:00,
2013-09-03 04:18:00,63.2,62.9,29.66,East,92,0.0,0.0,99,0.00,OVC,,0.00,WeatherDisplay:10.37,2013-09-03 08:18:00,
2013-09-03 04:23:00,63.3,63.0,29.66,East,92,0.0,0.0,99,0.00,OVC,,0.00,WeatherDisplay:10.37,2013-09-03 08:23:00,
2013-09-03 04:28:00,63.3,63.0,29.67,East,92,0.0,0.0,99,0.00,OVC,,0.00,WeatherDisplay:10.37,2013-09-03 08:28:00,
2013-09-03 04:33:00,63.4,63.1,29.67,East,92,0.0,0.0,99,0.00,OVC,,0.00,WeatherDisplay:10.37,2013-09-03 08:33:00,
2013-09-03 04:38:00,63.4,63.1,29.67,East,92,0.0,0.0,99,0.00,OVC,,0.00,WeatherDisplay:10.37,2013-09-03 08:38:00,
2013-09-03 04:43:00,63.3,63.0,29.68,East,92,0.0,0.0,99,0.00,OVC,,0.00,WeatherDisplay:10.37,2013-09-03 08:43:00,
2013-09-03 04:48:00,63.3,63.0,29.68,East,92,0.0,0.0,99,0.00,OVC,,0.00,WeatherDisplay:10.37,2013-09-03 08:48:00,
2013-09-03 04:53:00,63.3,63.0,29.67,East,92,0.0,0.0,99,0.00,OVC,,0.00,WeatherDisplay:10.37,2013-09-03 08:53:00,
2013-09-03 04:58:00,63.4,63.4,29.67,East,92,0.0,0.0,100,0.00,OVC,,0.00,WeatherDisplay:10.37,2013-09-03 08:58:00,
2013-09-03 05:03:00,63.5,63.5,29.68,East,92,0.0,0.0,100,0.00,OVC,,0.00,WeatherDisplay:10.37,2013-09-03 09:03:00,
2013-09-03 05:08:00,63.7,63.7,29.68,East,92,0.0,0.0,100,0.00,OVC,,0.00,WeatherDisplay:10.37,2013-09-03 09:08:00,
2013-09-03 05:13:00,63.9,63.9,29.69,East,92,0.0,0.0,100,0.00,,,0.00,WeatherDisplay:10.37,2013-09-03 09:13:00,
2013-09-03 05:18:00,64.0,64.0,29.69,East,92,0.0,0.0,100,0.00,,,0.00,WeatherDisplay:10.37,2013-09-03 09:18:00,
2013-09-03 05:23:00,64.4,64.4,29.69,East,92,0.0,0.0,100,0.00,,,0.00,WeatherDisplay:10.37,2013-09-03 09:23:00,
2013-09-03 05:28:00,64.6,64.6,29.69,East,92,0.0,0.0,100,0.00,,,0.00,WeatherDisplay:10.37,2013-09-03 09:28:00,
2013-09-03 05:33:00,64.8,64.8,29.69,East,92,0.0,0.0,100,0.00,,,0.00,WeatherDisplay:10.37,2013-09-03 09:33:00,
2013-09-03 05:38:00,64.9,64.9,29.69,East,92,0.0,0.0,100,0.00,,,0.00,WeatherDisplay:10.37,2013-09-03 09:38:00,
2013-09-03 05:43:00,64.6,64.6,29.69,East,92,0.0,0.0,100,0.00,,,0.00,WeatherDisplay:10.37,2013-09-03 09:43:00,
2013-09-03 05:48:00,64.5,64.5,29.69,East,92,0.0,0.0,100,0.00,,,0.00,WeatherDisplay:10.37,2013-09-03 09:48:00,
2013-09-03 05:53:00,64.3,64.3,29.69,East,92,0.0,0.0,100,0.00,,,0.00,WeatherDisplay:10.37,2013-09-03 09:53:00,
2013-09-03 05:58:00,64.1,64.1,29.70,East,92,0.0,0.0,100,0.00,,,0.00,WeatherDisplay:10.37,2013-09-03 09:58:00,
2013-09-03 06:03:00,64.0,64.0,29.70,East,92,0.0,0.0,100,0.00,,,0.00,WeatherDisplay:10.37,2013-09-03 10:03:00,
2013-09-03 06:08:00,63.8,63.8,29.70,East,92,0.0,0.0,100,0.00,,,0.00,WeatherDisplay:10.37,2013-09-03 10:08:00,
2013-09-03 06:13:00,63.7,63.7,29.70,East,92,0.0,0.0,100,0.00,,,0.00,WeatherDisplay:10.37,2013-09-03 10:13:00,
2013-09-03 06:18:00,63.5,63.2,29.70,East,92,0.0,0.0,99,0.00,,,0.00,WeatherDisplay:10.37,2013-09-03 10:18:00,
2013-09-03 06:23:00,63.5,63.2,29.70,East,92,0.0,0.0,99,0.00,,,0.00,WeatherDisplay:10.37,2013-09-03 10:23:00,
2013-09-03 06:28:00,63.3,63.0,29.70,East,92,0.0,0.0,99,0.00,,,0.00,WeatherDisplay:10.37,2013-09-03 10:28:00,
2013-09-03 06:33:00,63.2,62.9,29.70,East,92,0.0,0.0,99,0.00,,,0.00,WeatherDisplay:10.37,2013-09-03 10:33:00,
2013-09-03 06:38:00,63.1,62.8,29.70,East,92,0.0,0.0,99,0.00,,,0.00,WeatherDisplay:10.37,2013-09-03 10:38:00,
2013-09-03 06:43:00,62.9,62.6,29.70,East,92,0.0,0.0,99,0.00,,,0.00,WeatherDisplay:10.37,2013-09-03 10:43:00,
2013-09-03 06:48:00,62.9,62.6,29.71,East,92,0.0,0.0,99,0.00,,,0.00,WeatherDisplay:10.37,2013-09-03 10:48:00,
2013-09-03 06:53:00,62.8,62.5,29.71,East,92,0.0,0.0,99,0.00,,,0.00,WeatherDisplay:10.37,2013-09-03 10:53:00,
2013-09-03 06:58:00,62.8,62.5,29.71,East,92,0.0,0.0,99,0.00,,,0.00,WeatherDisplay:10.37,2013-09-03 10:58:00,
2013-09-03 07:03:00,62.8,62.5,29.72,East,92,0.0,0.0,99,0.00,,,0.00,WeatherDisplay:10.37,2013-09-03 11:03:00,
2013-09-03 07:08:00,62.8,62.5,29.72,East,92,0.0,0.0,99,0.00,,,0.00,WeatherDisplay:10.37,2013-09-03 11:08:00,
2013-09-03 07:13:00,62.8,62.8,29.72,East,92,0.0,0.0,100,0.00,BKN,,0.00,WeatherDisplay:10.37,2013-09-03 11:13:00,
2013-09-03 07:18:00,62.9,62.9,29.72,East,92,0.0,0.0,100,0.00,BKN,,0.00,WeatherDisplay:10.37,2013-09-03 11:18:00,
2013-09-03 07:23:00,63.0,63.0,29.72,East,92,0.0,0.0,100,0.00,BKN,,0.00,WeatherDisplay:10.37,2013-09-03 11:23:00,
2013-09-03 07:28:00,63.1,63.1,29.72,East,92,0.0,0.0,100,0.00,BKN,,0.00,WeatherDisplay:10.37,2013-09-03 11:28:00,
2013-09-03 07:33:00,63.3,63.3,29.72,East,92,0.0,0.0,100,0.00,BKN,,0.00,WeatherDisplay:10.37,2013-09-03 11:33:00,
2013-09-03 07:38:00,63.5,63.5,29.73,East,92,0.0,0.0,100,0.00,BKN,,0.00,WeatherDisplay:10.37,2013-09-03 11:38:00,
2013-09-03 07:43:00,63.6,63.6,29.73,East,92,0.0,0.0,100,0.00,BKN,,0.00,WeatherDisplay:10.37,2013-09-03 11:43:00,
2013-09-03 07:48:00,63.9,63.9,29.73,East,92,0.0,0.0,100,0.00,BKN,,0.00,WeatherDisplay:10.37,2013-09-03 11:48:00,
2013-09-03 07:53:00,64.0,64.0,29.73,East,92,0.0,0.0,100,0.00,FEW,,0.00,WeatherDisplay:10.37,2013-09-03 11:53:00,
2013-09-03 07:58:00,64.3,64.3,29.73,East,92,0.0,0.0,100,0.00,FEW,,0.00,WeatherDisplay:10.37,2013-09-03 11:58:00,
2013-09-03 08:04:00,64.6,64.6,29.73,East,92,0.0,0.0,100,0.00,FEW,,0.00,WeatherDisplay:10.37,2013-09-03 12:04:00,
2013-09-03 08:09:00,64.7,64.7,29.73,East,92,0.0,0.0,100,0.00,FEW,,0.00,WeatherDisplay:10.37,2013-09-03 12:09:00,
2013-09-03 08:14:00,64.9,64.9,29.73,East,92,0.0,0.0,100,0.00,CLR,,0.00,WeatherDisplay:10.37,2013-09-03 12:14:00,
2013-09-03 08:19:00,64.9,64.9,29.73,East,92,0.0,0.0,100,0.00,CLR,,0.00,WeatherDisplay:10.37,2013-09-03 12:19:00,
2013-09-03 08:24:00,65.0,65.0,29.73,East,92,0.0,0.0,100,0.00,CLR,,0.00,WeatherDisplay:10.37,2013-09-03 12:24:00,
2013-09-03 08:29:00,65.1,65.1,29.73,East,92,0.0,0.8,100,0.00,CLR,,0.00,WeatherDisplay:10.37,2013-09-03 12:29:00,
2013-09-03 08:34:00,65.2,65.2,29.74,East,92,0.0,0.0,100,0.00,CLR,,0.00,WeatherDisplay:10.37,2013-09-03 12:34:00,
2013-09-03 08:39:00,65.4,65.4,29.74,East,92,1.2,1.2,100,0.00,CLR,,0.00,WeatherDisplay:10.37,2013-09-03 12:39:00,
2013-09-03 08:44:00,65.7,65.7,29.74,East,92,0.0,0.0,100,0.00,CLR,,0.00,WeatherDisplay:10.37,2013-09-03 12:44:00,
2013-09-03 08:49:00,65.8,65.8,29.74,East,92,0.0,0.0,100,0.00,CLR,,0.00,WeatherDisplay:10.37,2013-09-03 12:49:00,
2013-09-03 08:54:00,66.5,66.5,29.73,East,92,0.0,0.0,100,0.00,FEW,,0.00,WeatherDisplay:10.37,2013-09-03 12:54:00,
2013-09-03 08:59:00,66.6,66.6,29.73,East,92,0.0,0.0,100,0.00,FEW,,0.00,WeatherDisplay:10.37,2013-09-03 12:59:00,
2013-09-03 09:04:00,66.8,66.8,29.74,East,92,0.0,0.0,100,0.00,FEW,,0.00,WeatherDisplay:10.37,2013-09-03 13:04:00,
2013-09-03 09:09:00,67.1,67.1,29.74,East,92,0.0,0.0,100,0.00,FEW,,0.00,WeatherDisplay:10.37,2013-09-03 13:09:00,
2013-09-03 09:14:00,67.4,67.4,29.73,East,92,1.2,0.0,100,0.00,BKN,,0.00,WeatherDisplay:10.37,2013-09-03 13:14:00,
2013-09-03 09:19:00,67.2,66.9,29.73,East,92,0.0,0.0,99,0.00,BKN,,0.00,WeatherDisplay:10.37,2013-09-03 13:19:00,
2013-09-03 09:24:00,67.4,67.1,29.73,East,92,0.0,0.0,99,0.00,BKN,,0.00,WeatherDisplay:10.37,2013-09-03 13:24:00,
2013-09-03 09:29:00,67.6,67.3,29.73,East,92,0.0,0.0,99,0.00,BKN,,0.00,WeatherDisplay:10.37,2013-09-03 13:29:00,
2013-09-03 09:34:00,67.6,67.0,29.73,East,92,0.0,0.0,98,0.00,BKN,,0.00,WeatherDisplay:10.37,2013-09-03 13:34:00,
2013-09-03 09:39:00,67.9,67.3,29.74,East,92,0.0,0.0,98,0.00,BKN,,0.00,WeatherDisplay:10.37,2013-09-03 13:39:00,
2013-09-03 09:44:00,68.2,67.6,29.74,SSW,207,1.2,0.0,98,0.00,BKN,,0.00,WeatherDisplay:10.37,2013-09-03 13:44:00,
2013-09-03 09:49:00,68.8,67.9,29.74,SSW,207,0.0,0.0,97,0.00,BKN,,0.00,WeatherDisplay:10.37,2013-09-03 13:49:00,
2013-09-03 09:54:00,69.1,67.3,29.74,SSW,207,0.0,0.0,94,0.00,BKN,,0.00,WeatherDisplay:10.37,2013-09-03 13:54:00,
2013-09-03 09:59:00,69.1,66.0,29.73,SSW,207,0.0,0.0,90,0.00,BKN,,0.00,WeatherDisplay:10.37,2013-09-03 13:59:00,
2013-09-03 10:04:00,69.2,67.1,29.74,SSW,207,0.0,0.0,93,0.00,BKN,,0.00,WeatherDisplay:10.37,2013-09-03 14:04:00,
2013-09-03 10:09:00,69.4,67.3,29.74,SSW,207,1.2,1.2,93,0.00,BKN,,0.00,WeatherDisplay:10.37,2013-09-03 14:09:00,
2013-09-03 10:14:00,69.2,66.8,29.74,ESE,107,1.2,1.2,92,0.00,BKN,,0.00,WeatherDisplay:10.37,2013-09-03 14:14:00,
2013-09-03 10:19:00,69.2,67.1,29.74,East,90,1.2,1.2,93,0.00,BKN,,0.00,WeatherDisplay:10.37,2013-09-03 14:19:00,
2013-09-03 10:24:00,69.3,66.6,29.74,ENE,77,0.0,0.2,91,0.00,BKN,,0.00,WeatherDisplay:10.37,2013-09-03 14:24:00,
2013-09-03 10:29:00,69.5,66.4,29.74,SSW,194,0.0,1.7,90,0.00,BKN,,0.00,WeatherDisplay:10.37,2013-09-03 14:29:00,
2013-09-03 10:34:00,70.0,67.3,29.74,SW,233,1.2,0.0,91,0.00,BKN,,0.00,WeatherDisplay:10.37,2013-09-03 14:34:00,
2013-09-03 10:39:00,70.3,67.5,29.74,WSW,246,0.0,0.0,91,0.00,BKN,,0.00,WeatherDisplay:10.37,2013-09-03 14:39:00,
2013-09-03 10:44:00,70.2,66.5,29.73,WSW,246,0.0,0.0,88,0.00,BKN,,0.00,WeatherDisplay:10.37,2013-09-03 14:44:00,
2013-09-03 10:49:00,70.3,67.2,29.74,WSW,246,0.0,0.0,90,0.00,BKN,,0.00,WeatherDisplay:10.37,2013-09-03 14:49:00,
2013-09-03 10:54:00,70.3,65.6,29.74,NW,314,0.0,0.0,85,0.00,BKN,,0.00,WeatherDisplay:10.37,2013-09-03 14:54:00,
2013-09-03 10:59:00,70.4,66.3,29.74,NNW,333,2.3,2.3,87,0.00,BKN,,0.00,WeatherDisplay:10.37,2013-09-03 14:59:00,
2013-09-03 11:04:00,70.7,67.3,29.74,NNW,333,0.0,0.0,89,0.00,BKN,,0.00,WeatherDisplay:10.37,2013-09-03 15:04:00,
2013-09-03 11:09:00,71.2,67.5,29.74,NNW,333,1.2,1.2,88,0.00,BKN,,0.00,WeatherDisplay:10.37,2013-09-03 15:09:00,
2013-09-03 11:14:00,71.6,66.5,29.73,SSE,157,2.3,2.3,84,0.00,BKN,,0.00,WeatherDisplay:10.37,2013-09-03 15:14:00,
2013-09-03 11:19:00,71.9,67.5,29.73,SSW,195,1.2,3.8,86,0.00,BKN,,0.00,WeatherDisplay:10.37,2013-09-03 15:19:00,
2013-09-03 11:24:00,72.0,67.9,29.73,South,173,0.0,0.0,87,0.00,BKN,,0.00,WeatherDisplay:10.37,2013-09-03 15:24:00,
2013-09-03 11:29:00,72.1,67.7,29.73,SSW,193,3.5,3.5,86,0.00,BKN,,0.00,WeatherDisplay:10.37,2013-09-03 15:29:00,
2013-09-03 11:34:00,72.1,67.3,29.73,South,182,1.2,0.0,85,0.00,BKN,,0.00,WeatherDisplay:10.37,2013-09-03 15:34:00,
2013-09-03 11:39:00,72.1,67.0,29.73,South,190,0.0,0.0,84,0.00,BKN,,0.00,WeatherDisplay:10.37,2013-09-03 15:39:00,
2013-09-03 11:44:00,72.1,68.7,29.73,WSW,241,0.0,0.0,89,0.00,BKN,,0.00,WeatherDisplay:10.37,2013-09-03 15:44:00,
2013-09-03 11:49:00,72.1,68.7,29.72,WSW,241,0.0,0.0,89,0.00,BKN,,0.00,WeatherDisplay:10.37,2013-09-03 15:49:00,
2013-09-03 11:54:00,71.9,68.2,29.72,WSW,244,0.0,0.0,88,0.00,BKN,,0.00,WeatherDisplay:10.37,2013-09-03 15:54:00,
2013-09-03 11:59:00,72.2,68.8,29.72,NW,326,1.2,1.2,89,0.00,BKN,,0.00,WeatherDisplay:10.37,2013-09-03 15:59:00,
2013-09-03 12:04:00,72.3,67.5,29.72,West,273,0.0,0.0,85,0.00,OVC,,0.00,WeatherDisplay:10.37,2013-09-03 16:04:00,
2013-09-03 12:09:00,72.5,67.4,29.72,SSW,197,0.0,0.0,84,0.00,OVC,,0.00,WeatherDisplay:10.37,2013-09-03 16:09:00,
2013-09-03 12:14:00,72.6,67.5,29.72,SSW,197,0.0,0.0,84,0.00,OVC,,0.00,WeatherDisplay:10.37,2013-09-03 16:14:00,
2013-09-03 12:19:00,72.6,68.5,29.72,SSW,197,0.0,0.0,87,0.00,OVC,,0.00,WeatherDisplay:10.37,2013-09-03 16:19:00,
2013-09-03 12:24:00,72.4,67.3,29.71,NE,55,0.0,0.0,84,0.00,OVC,,0.00,WeatherDisplay:10.37,2013-09-03 16:24:00,
2013-09-03 12:29:00,72.3,67.9,29.71,NW,314,1.2,1.2,86,0.00,OVC,,0.00,WeatherDisplay:10.37,2013-09-03 16:29:00,
2013-09-03 12:34:00,72.2,68.4,29.72,NNW,333,1.2,1.2,88,0.00,OVC,,0.00,WeatherDisplay:10.37,2013-09-03 16:34:00,
2013-09-03 12:39:00,72.0,67.6,29.72,West,263,0.0,0.4,86,0.00,OVC,,0.00,WeatherDisplay:10.37,2013-09-03 16:39:00,
2013-09-03 12:44:00,71.9,67.5,29.72,NW,317,3.5,3.5,86,0.00,OVC,,0.00,WeatherDisplay:10.37,2013-09-03 16:44:00,
2013-09-03 12:49:00,71.9,67.8,29.72,West,262,1.2,1.2,87,0.00,OVC,,0.00,WeatherDisplay:10.37,2013-09-03 16:49:00,
2013-09-03 12:54:00,71.8,67.4,29.72,SSE,165,0.0,0.0,86,0.00,OVC,,0.00,WeatherDisplay:10.37,2013-09-03 16:54:00,
2013-09-03 12:59:00,71.9,67.1,29.72,SW,226,3.5,3.5,85,0.00,OVC,,0.00,WeatherDisplay:10.37,2013-09-03 16:59:00,
2013-09-03 13:04:00,72.0,67.9,29.72,SSW,205,2.3,2.3,87,0.00,OVC,,0.00,WeatherDisplay:10.37,2013-09-03 17:04:00,
2013-09-03 13:09:00,72.1,67.3,29.71,South,172,3.5,3.5,85,0.00,OVC,,0.00,WeatherDisplay:10.37,2013-09-03 17:09:00,
2013-09-03 13:14:00,72.4,67.3,29.71,NNW,340,2.3,2.3,84,0.00,OVC,,0.00,WeatherDisplay:10.37,2013-09-03 17:14:00,
2013-09-03 13:19:00,72.7,68.9,29.71,NNW,342,0.0,0.0,88,0.00,OVC,,0.00,WeatherDisplay:10.37,2013-09-03 17:19:00,
2013-09-03 13:24:00,73.2,69.4,29.71,ESE,122,1.2,1.2,88,0.00,OVC,,0.00,WeatherDisplay:10.37,2013-09-03 17:24:00,
2013-09-03 13:29:00,73.2,67.4,29.71,North,360,1.2,1.2,82,0.00,OVC,,0.00,WeatherDisplay:10.37,2013-09-03 17:29:00,
2013-09-03 13:34:00,73.2,67.4,29.71,North,355,0.0,0.0,82,0.00,OVC,,0.00,WeatherDisplay:10.37,2013-09-03 17:34:00,
2013-09-03 13:39:00,73.4,67.6,29.71,WSW,251,1.2,1.2,82,0.00,OVC,,0.00,WeatherDisplay:10.37,2013-09-03 17:39:00,
2013-09-03 13:44:00,73.4,67.2,29.71,SE,134,0.0,0.2,81,0.00,OVC,,0.00,WeatherDisplay:10.37,2013-09-03 17:44:00,
2013-09-03 13:49:00,73.3,67.5,29.71,NE,44,0.0,0.4,82,0.00,OVC,,0.00,WeatherDisplay:10.37,2013-09-03 17:49:00,
2013-09-03 13:54:00,73.2,67.7,29.71,NE,35,0.0,0.0,83,0.00,OVC,,0.00,WeatherDisplay:10.37,2013-09-03 17:54:00,
2013-09-03 13:59:00,73.6,67.4,29.70,SSW,194,0.0,0.1,81,0.00,OVC,,0.00,WeatherDisplay:10.37,2013-09-03 17:59:00,
2013-09-03 14:05:00,73.6,67.8,29.70,NNE,17,3.5,3.5,82,0.00,OVC,,0.00,WeatherDisplay:10.37,2013-09-03 18:05:00,
2013-09-03 14:09:00,73.5,67.3,29.70,East,89,1.2,1.2,81,0.00,OVC,,0.00,WeatherDisplay:10.37,2013-09-03 18:09:00,
2013-09-03 14:15:00,73.3,67.5,29.70,NNE,30,2.3,2.3,82,0.00,OVC,,0.00,WeatherDisplay:10.37,2013-09-03 18:15:00,
2013-09-03 14:20:00,73.1,67.3,29.70,SE,143,3.5,3.5,82,0.00,OVC,,0.00,WeatherDisplay:10.37,2013-09-03 18:20:00,
2013-09-03 14:25:00,72.9,67.1,29.70,South,179,3.5,3.5,82,0.00,OVC,,0.00,WeatherDisplay:10.37,2013-09-03 18:25:00,
2013-09-03 14:30:00,72.7,67.2,29.70,SE,125,3.5,3.5,83,0.00,OVC,,0.00,WeatherDisplay:10.37,2013-09-03 18:30:00,
2013-09-03 14:35:00,72.3,66.8,29.70,NW,320,1.2,1.2,83,0.00,OVC,,0.00,WeatherDisplay:10.37,2013-09-03 18:35:00,
2013-09-03 14:40:00,72.1,67.3,29.70,NE,46,0.0,0.0,85,0.00,OVC,,0.00,WeatherDisplay:10.37,2013-09-03 18:40:00,
2013-09-03 14:45:00,71.7,66.9,29.70,ENE,70,3.5,3.5,85,0.00,OVC,,0.00,WeatherDisplay:10.37,2013-09-03 18:45:00,
2013-09-03 14:50:00,71.3,66.6,29.70,ENE,71,1.2,1.2,85,0.00,OVC,,0.00,WeatherDisplay:10.37,2013-09-03 18:50:00,
2013-09-03 14:55:00,70.9,66.2,29.70,ENE,65,1.2,1.2,85,0.00,OVC,,0.00,WeatherDisplay:10.37,2013-09-03 18:55:00,
2013-09-03 15:00:00,70.7,66.0,29.70,ESE,111,1.2,1.2,85,0.00,OVC,,0.00,WeatherDisplay:10.37,2013-09-03 19:00:00,
2013-09-03 15:05:00,70.3,65.6,29.70,WNW,292,3.5,4.0,85,0.00,OVC,,0.00,WeatherDisplay:10.37,2013-09-03 19:05:00,
2013-09-03 15:10:00,70.1,65.7,29.70,WSW,240,1.2,1.2,86,0.00,OVC,,0.00,WeatherDisplay:10.37,2013-09-03 19:10:00,
2013-09-03 15:15:00,69.7,65.0,29.70,NNW,344,3.5,3.5,85,0.00,OVC,,0.00,WeatherDisplay:10.37,2013-09-03 19:15:00,
2013-09-03 15:20:00,69.4,64.7,29.70,NNW,329,3.5,3.5,85,0.00,OVC,,0.00,WeatherDisplay:10.37,2013-09-03 19:20:00,
2013-09-03 15:25:00,69.3,64.6,29.70,NNE,17,1.2,0.0,85,0.00,OVC,,0.00,WeatherDisplay:10.37,2013-09-03 19:25:00,
2013-09-03 15:30:00,69.2,64.8,29.70,North,350,1.2,1.2,86,0.00,OVC,,0.00,WeatherDisplay:10.37,2013-09-03 19:30:00,
2013-09-03 15:35:00,69.0,65.0,29.70,North,349,2.3,2.3,87,0.00,OVC,,0.00,WeatherDisplay:10.37,2013-09-03 19:35:00,
2013-09-03 15:40:00,68.9,64.9,29.70,SSW,200,0.0,0.4,87,0.00,OVC,,0.00,WeatherDisplay:10.37,2013-09-03 19:40:00,
2013-09-03 15:45:00,68.7,64.0,29.71,SW,232,2.3,2.3,85,0.00,OVC,,0.00,WeatherDisplay:10.37,2013-09-03 19:45:00,
2013-09-03 15:50:00,68.6,64.2,29.71,WSW,254,2.3,2.3,86,0.00,OVC,,0.00,WeatherDisplay:10.37,2013-09-03 19:50:00,
2013-09-03 15:55:00,68.6,64.2,29.71,WSW,254,0.0,0.0,86,0.00,OVC,,0.00,WeatherDisplay:10.37,2013-09-03 19:55:00,
2013-09-03 16:00:00,68.5,63.5,29.71,SSW,194,0.0,0.4,84,0.00,OVC,,0.00,WeatherDisplay:10.37,2013-09-03 20:00:00,
2013-09-03 16:05:00,68.4,63.4,29.71,SSW,192,0.0,0.0,84,0.00,OVC,,0.00,WeatherDisplay:10.37,2013-09-03 20:05:00,
2013-09-03 16:10:00,68.3,63.3,29.71,ESE,107,0.0,0.0,84,0.00,OVC,,0.00,WeatherDisplay:10.37,2013-09-03 20:10:00,
2013-09-03 16:15:00,68.3,63.6,29.71,SSE,162,0.0,0.0,85,0.00,OVC,,0.00,WeatherDisplay:10.37,2013-09-03 20:15:00,
2013-09-03 16:20:00,68.4,64.0,29.71,SE,137,0.0,0.0,86,0.00,OVC,,0.00,WeatherDisplay:10.37,2013-09-03 20:20:00,
2013-09-03 16:25:00,68.3,63.3,29.71,SSW,195,1.2,1.2,84,0.00,OVC,,0.00,WeatherDisplay:10.37,2013-09-03 20:25:00,
2013-09-03 16:30:00,68.2,63.2,29.71,WSW,254,2.3,2.3,84,0.00,OVC,,0.00,WeatherDisplay:10.37,2013-09-03 20:30:00,
2013-09-03 16:35:00,68.3,63.6,29.71,SSW,200,2.3,0.0,85,0.00,OVC,,0.00,WeatherDisplay:10.37,2013-09-03 20:35:00,
2013-09-03 16:40:00,68.3,63.6,29.71,NNW,346,0.0,0.0,85,0.00,OVC,,0.00,WeatherDisplay:10.37,2013-09-03 20:40:00,
2013-09-03 16:45:00,68.3,63.6,29.71,North,350,2.0,2.0,85,0.00,OVC,,0.00,WeatherDisplay:10.37,2013-09-03 20:45:00,
2013-09-03 16:50:00,68.4,63.7,29.71,SSW,192,1.2,1.2,85,0.00,OVC,,0.00,WeatherDisplay:10.37,2013-09-03 20:50:00,
2013-09-03 16:55:00,68.5,63.5,29.71,SSW,192,0.0,0.0,84,0.00,OVC,,0.00,WeatherDisplay:10.37,2013-09-03 20:55:00,
2013-09-03 17:00:00,68.9,63.5,29.70,SE,136,1.2,1.2,83,0.00,OVC,,0.00,WeatherDisplay:10.37,2013-09-03 21:00:00,
2013-09-03 17:05:00,69.2,64.5,29.70,South,188,1.2,1.2,85,0.00,OVC,,0.00,WeatherDisplay:10.37,2013-09-03 21:05:00,
2013-09-03 17:10:00,69.2,63.5,29.71,SSW,198,0.0,0.0,82,0.00,OVC,,0.00,WeatherDisplay:10.37,2013-09-03 21:10:00,
2013-09-03 17:15:00,69.4,64.0,29.70,SSW,200,1.2,0.0,83,0.00,OVC,,0.00,WeatherDisplay:10.37,2013-09-03 21:15:00,
2013-09-03 17:20:00,70.0,64.2,29.71,WNW,288,1.2,1.2,82,0.00,OVC,,0.00,WeatherDisplay:10.37,2013-09-03 21:20:00,
2013-09-03 17:25:00,70.3,63.5,29.71,ESE,109,3.5,3.5,79,0.00,BKN,,0.00,WeatherDisplay:10.37,2013-09-03 21:25:00,
2013-09-03 17:30:00,70.2,63.7,29.71,NE,37,3.5,3.5,80,0.00,BKN,,0.00,WeatherDisplay:10.37,2013-09-03 21:30:00,
2013-09-03 17:35:00,70.2,63.4,29.71,WNW,299,1.0,0.0,79,0.00,BKN,,0.00,WeatherDisplay:10.37,2013-09-03 21:35:00,
2013-09-03 17:40:00,70.0,62.5,29.71,NNE,18,2.3,2.3,77,0.00,BKN,,0.00,WeatherDisplay:10.37,2013-09-03 21:40:00,
2013-09-03 17:45:00,69.8,63.7,29.71,SSE,157,0.0,0.2,81,0.00,BKN,,0.00,WeatherDisplay:10.37,2013-09-03 21:45:00,
2013-09-03 17:50:00,69.6,63.2,29.71,SSW,204,2.3,2.3,80,0.00,BKN,,0.00,WeatherDisplay:10.37,2013-09-03 21:50:00,
2013-09-03 17:55:00,69.6,63.5,29.71,SSW,198,0.0,0.0,81,0.00,BKN,,0.00,WeatherDisplay:10.37,2013-09-03 21:55:00,
2013-09-03 18:00:00,69.4,63.0,29.71,SSW,202,0.0,0.1,80,0.00,BKN,,0.00,WeatherDisplay:10.37,2013-09-03 22:00:00,
2013-09-03 18:05:00,69.2,63.1,29.71,North,355,1.2,1.2,81,0.00,SCT,,0.00,WeatherDisplay:10.37,2013-09-03 22:05:00,
2013-09-03 18:10:00,69.1,63.4,29.71,NNE,13,0.0,0.0,82,0.00,SCT,,0.00,WeatherDisplay:10.37,2013-09-03 22:10:00,
2013-09-03 18:15:00,69.0,63.3,29.71,East,86,0.0,0.0,82,0.00,SCT,,0.00,WeatherDisplay:10.37,2013-09-03 22:15:00,
2013-09-03 18:20:00,68.9,63.9,29.71,East,86,0.0,0.0,84,0.00,SCT,,0.00,WeatherDisplay:10.37,2013-09-03 22:20:00,
2013-09-03 18:25:00,68.6,63.2,29.71,East,86,0.0,0.0,83,0.00,SCT,,0.00,WeatherDisplay:10.37,2013-09-03 22:25:00,
2013-09-03 18:30:00,68.3,62.6,29.71,NW,314,0.0,0.9,82,0.00,SCT,,0.00,WeatherDisplay:10.37,2013-09-03 22:30:00,
2013-09-03 18:35:00,68.1,61.7,29.71,NNW,327,0.0,0.0,80,0.00,SCT,,0.00,WeatherDisplay:10.37,2013-09-03 22:35:00,
2013-09-03 18:40:00,67.9,62.2,29.71,ENE,76,0.0,0.0,82,0.00,SCT,,0.00,WeatherDisplay:10.37,2013-09-03 22:40:00,
2013-09-03 18:45:00,67.6,62.3,29.71,East,81,0.0,0.0,83,0.00,SCT,,0.00,WeatherDisplay:10.37,2013-09-03 22:45:00,
2013-09-03 18:50:00,67.1,62.4,29.71,East,81,0.0,0.0,85,0.00,SCT,,0.00,WeatherDisplay:10.37,2013-09-03 22:50:00,
2013-09-03 18:55:00,66.7,62.0,29.72,ESE,115,0.0,0.0,85,0.00,SCT,,0.00,WeatherDisplay:10.37,2013-09-03 22:55:00,
2013-09-03 19:00:00,66.4,62.4,29.72,ESE,115,0.0,0.0,87,0.00,SCT,,0.00,WeatherDisplay:10.37,2013-09-03 23:00:00,
2013-09-03 19:06:00,65.9,61.9,29.72,ESE,115,0.0,0.0,87,0.00,CLR,,0.00,WeatherDisplay:10.37,2013-09-03 23:06:00,
2013-09-03 19:11:00,65.9,61.9,29.72,ESE,115,0.0,0.0,87,0.00,CLR,,0.00,WeatherDisplay:10.37,2013-09-03 23:11:00,
2013-09-03 19:16:00,65.1,61.5,29.72,ESE,115,0.0,0.0,88,0.00,CLR,,0.00,WeatherDisplay:10.37,2013-09-03 23:16:00,
2013-09-03 19:21:00,64.7,61.4,29.72,ESE,115,0.0,0.0,89,0.00,CLR,,0.00,WeatherDisplay:10.37,2013-09-03 23:21:00,
2013-09-03 19:26:00,64.3,61.0,29.72,ESE,115,0.0,0.0,89,0.00,CLR,,0.00,WeatherDisplay:10.37,2013-09-03 23:26:00,
2013-09-03 19:31:00,64.0,60.7,29.73,ESE,115,0.0,0.0,89,0.00,CLR,,0.00,WeatherDisplay:10.37,2013-09-03 23:31:00,
2013-09-03 19:36:00,63.1,60.4,29.73,ESE,115,0.0,0.0,91,0.00,CLR,,0.00,WeatherDisplay:10.37,2013-09-03 23:36:00,
2013-09-03 19:41:00,62.9,60.2,29.73,ESE,115,0.0,0.0,91,0.00,CLR,,0.00,WeatherDisplay:10.37,2013-09-03 23:41:00,
2013-09-03 19:46:00,62.6,60.2,29.74,ESE,115,0.0,0.0,92,0.00,CLR,,0.00,WeatherDisplay:10.37,2013-09-03 23:46:00,
2013-09-03 19:51:00,62.1,59.7,29.74,ESE,115,1.2,1.2,92,0.00,CLR,,0.00,WeatherDisplay:10.37,2013-09-03 23:51:00,
2013-09-03 19:56:00,61.9,59.2,29.74,ESE,115,0.0,0.0,91,0.00,CLR,,0.00,WeatherDisplay:10.37,2013-09-03 23:56:00,
2013-09-03 20:01:00,61.6,58.9,29.75,ESE,116,0.0,0.0,91,0.00,CLR,,0.00,WeatherDisplay:10.37,2013-09-04 00:01:00,
2013-09-03 20:06:00,61.6,59.3,29.75,ESE,116,0.0,0.7,92,0.00,CLR,,0.00,WeatherDisplay:10.37,2013-09-04 00:06:00,
2013-09-03 20:11:00,61.3,58.3,29.75,SW,228,0.0,0.0,90,0.00,CLR,,0.00,WeatherDisplay:10.37,2013-09-04 00:11:00,
2013-09-03 20:16:00,61.1,58.5,29.76,SW,228,0.0,0.0,91,0.00,CLR,,0.00,WeatherDisplay:10.37,2013-09-04 00:16:00,
2013-09-03 20:21:00,60.9,58.3,29.75,SSW,208,1.2,1.2,91,0.00,CLR,,0.00,WeatherDisplay:10.37,2013-09-04 00:21:00,
2013-09-03 20:26:00,60.7,58.1,29.75,SW,222,1.0,1.0,91,0.00,CLR,,0.00,WeatherDisplay:10.37,2013-09-04 00:26:00,
2013-09-03 20:31:00,60.6,57.7,29.76,SW,222,2.3,2.3,90,0.00,CLR,,0.00,WeatherDisplay:10.37,2013-09-04 00:31:00,
2013-09-03 20:36:00,60.5,57.6,29.76,South,182,2.3,2.3,90,0.00,CLR,,0.00,WeatherDisplay:10.37,2013-09-04 00:36:00,
2013-09-03 20:41:00,60.5,57.6,29.76,South,182,0.0,0.9,90,0.00,CLR,,0.00,WeatherDisplay:10.37,2013-09-04 00:41:00,
2013-09-03 20:46:00,60.5,57.6,29.76,South,182,0.0,0.9,90,0.00,CLR,,0.00,WeatherDisplay:10.37,2013-09-04 00:46:00,
2013-09-03 20:51:00,60.5,57.2,29.76,East,85,2.3,2.3,89,0.00,CLR,,0.00,WeatherDisplay:10.37,2013-09-04 00:51:00,
2013-09-03 20:56:00,60.5,56.9,29.76,SE,134,1.2,1.2,88,0.00,CLR,,0.00,WeatherDisplay:10.37,2013-09-04 00:56:00,
2013-09-03 21:01:00,60.5,56.9,29.76,SE,139,0.0,0.0,88,0.00,CLR,,0.00,WeatherDisplay:10.37,2013-09-04 01:01:00,
2013-09-03 21:06:00,60.6,58.0,29.76,SSE,147,1.2,1.2,91,0.00,CLR,,0.00,WeatherDisplay:10.37,2013-09-04 01:06:00,
2013-09-03 21:11:00,60.4,57.8,29.76,SSE,147,0.0,0.0,91,0.00,CLR,,0.00,WeatherDisplay:10.37,2013-09-04 01:11:00,
2013-09-03 21:16:00,60.1,57.5,29.76,SSE,148,1.2,1.2,91,0.00,CLR,,0.00,WeatherDisplay:10.37,2013-09-04 01:16:00,
2013-09-03 21:21:00,60.0,57.7,29.77,SSE,148,0.0,0.0,92,0.00,CLR,,0.00,WeatherDisplay:10.37,2013-09-04 01:21:00,
2013-09-03 21:26:00,59.8,57.2,29.77,SSE,152,0.0,0.0,91,0.00,CLR,,0.00,WeatherDisplay:10.37,2013-09-04 01:26:00,
2013-09-03 21:31:00,59.6,57.3,29.77,SSE,151,0.0,0.0,92,0.00,CLR,,0.00,WeatherDisplay:10.37,2013-09-04 01:31:00,
2013-09-03 21:36:00,59.5,56.9,29.77,WSW,250,0.0,0.1,91,0.00,CLR,,0.00,WeatherDisplay:10.37,2013-09-04 01:36:00,
2013-09-03 21:41:00,59.4,56.8,29.77,South,184,1.2,1.2,91,0.00,CLR,,0.00,WeatherDisplay:10.37,2013-09-04 01:41:00,
2013-09-03 21:46:00,59.4,57.1,29.77,SSE,168,2.0,0.0,92,0.00,CLR,,0.00,WeatherDisplay:10.37,2013-09-04 01:46:00,
2013-09-03 21:51:00,59.5,56.9,29.77,SSW,194,2.0,2.0,91,0.00,CLR,,0.00,WeatherDisplay:10.37,2013-09-04 01:51:00,
2013-09-03 21:56:00,59.6,57.0,29.77,SE,135,0.0,0.0,91,0.00,CLR,,0.00,WeatherDisplay:10.37,2013-09-04 01:56:00,
2013-09-03 22:01:00,59.6,57.0,29.77,ESE,103,1.2,1.2,91,0.00,CLR,,0.00,WeatherDisplay:10.37,2013-09-04 02:01:00,
2013-09-03 22:06:00,59.6,56.7,29.77,SSE,155,2.3,2.3,90,0.00,CLR,,0.00,WeatherDisplay:10.37,2013-09-04 02:06:00,
2013-09-03 22:11:00,59.6,57.0,29.77,SSE,159,0.0,0.0,91,0.00,CLR,,0.00,WeatherDisplay:10.37,2013-09-04 02:11:00,
2013-09-03 22:16:00,59.6,56.7,29.77,WNW,287,0.0,0.0,90,0.00,CLR,,0.00,WeatherDisplay:10.37,2013-09-04 02:16:00,
2013-09-03 22:21:00,59.6,56.7,29.77,South,180,3.5,0.0,90,0.00,CLR,,0.00,WeatherDisplay:10.37,2013-09-04 02:21:00,
2013-09-03 22:26:00,59.5,56.6,29.77,South,180,0.0,0.0,90,0.00,CLR,,0.00,WeatherDisplay:10.37,2013-09-04 02:26:00,
2013-09-03 22:31:00,59.6,56.7,29.78,WSW,237,0.0,0.1,90,0.00,CLR,,0.00,WeatherDisplay:10.37,2013-09-04 02:31:00,
2013-09-03 22:37:00,59.6,56.7,29.78,SSW,199,3.5,3.5,90,0.00,CLR,,0.00,WeatherDisplay:10.37,2013-09-04 02:37:00,
2013-09-03 22:41:00,59.5,56.9,29.78,SSW,199,0.0,0.0,91,0.00,CLR,,0.00,WeatherDisplay:10.37,2013-09-04 02:41:00,
2013-09-03 22:47:00,59.3,56.7,29.78,SSW,199,1.2,1.2,91,0.00,CLR,,0.00,WeatherDisplay:10.37,2013-09-04 02:47:00,
2013-09-03 22:52:00,59.1,56.5,29.78,SSW,199,0.0,0.0,91,0.00,CLR,,0.00,WeatherDisplay:10.37,2013-09-04 02:52:00,
2013-09-03 22:57:00,58.8,56.5,29.78,SSW,199,0.0,0.0,92,0.00,CLR,,0.00,WeatherDisplay:10.37,2013-09-04 02:57:00,
2013-09-03 23:02:00,58.6,56.3,29.78,SSW,199,0.0,0.0,92,0.00,CLR,,0.00,WeatherDisplay:10.37,2013-09-04 03:02:00,
2013-09-03 23:07:00,58.4,56.4,29.78,SSW,199,0.0,0.0,93,0.00,CLR,,0.00,WeatherDisplay:10.37,2013-09-04 03:07:00,
2013-09-03 23:12:00,58.1,56.1,29.78,SSW,199,0.0,0.0,93,0.00,CLR,,0.00,WeatherDisplay:10.37,2013-09-04 03:12:00,
2013-09-03 23:17:00,57.9,55.9,29.79,SSW,199,0.0,0.0,93,0.00,CLR,,0.00,WeatherDisplay:10.37,2013-09-04 03:17:00,
2013-09-03 23:22:00,57.7,56.0,29.78,SSW,194,0.0,0.0,94,0.00,CLR,,0.00,WeatherDisplay:10.37,2013-09-04 03:22:00,
2013-09-03 23:27:00,57.5,55.8,29.78,SSW,194,0.0,0.0,94,0.00,CLR,,0.00,WeatherDisplay:10.37,2013-09-04 03:27:00,
2013-09-03 23:32:00,57.3,55.6,29.78,SSW,194,0.0,0.0,94,0.00,CLR,,0.00,WeatherDisplay:10.37,2013-09-04 03:32:00,
2013-09-03 23:37:00,57.2,55.8,29.79,SSW,194,0.0,0.0,95,0.00,CLR,,0.00,WeatherDisplay:10.37,2013-09-04 03:37:00,
2013-09-03 23:42:00,57.1,55.7,29.79,SSW,194,0.0,0.0,95,0.00,CLR,,0.00,WeatherDisplay:10.37,2013-09-04 03:42:00,
2013-09-03 23:47:00,56.8,55.4,29.79,SSW,194,0.0,0.0,95,0.00,CLR,,0.00,WeatherDisplay:10.37,2013-09-04 03:47:00,
2013-09-03 23:52:00,56.7,55.3,29.79,SSW,194,0.0,0.0,95,0.00,CLR,,0.00,WeatherDisplay:10.37,2013-09-04 03:52:00,
2013-09-03 23:57:00,56.5,55.4,29.79,SSW,194,0.0,0.0,96,0.00,CLR,,0.00,WeatherDisplay:10.37,2013-09-04 03:57:00,